Time;durP1;ratioP1;P1;durP2;ratioP2;P2;SDS_P1;SDS_P2;PMS_P1;PMS_P2;Temp;Humidity;BMP_temperature;BMP_pressure;BME280_temperature;BME280_humidity;BME280_pressure;Samples;Min_cycle;Max_cycle;Signal;HPM_P1;HPM_P2
2023/01/29 00:00:23;;;;;;;0.52;0.50;;;;;;;-3.64;90.39;100306.22;10405528;28;20049;-85
2023/01/29 00:05:25;;;;;;;0.90;0.90;;;;;;;-3.62;90.16;100298.78;10404866;28;20042;-86
2023/01/29 00:10:27;;;;;;;0.75;0.75;;;;;;;-3.61;90.14;100295.09;10403829;28;20056;-85
2023/01/29 00:15:30;;;;;;;2.30;1.20;;;;;;;-3.61;90.28;100292.41;10404878;28;20073;-87
2023/01/29 00:20:32;;;;;;;1.60;1.50;;;;;;;-3.61;90.38;100284.34;10405343;28;20065;-86
2023/01/29 00:25:34;;;;;;;1.55;1.02;;;;;;;-3.56;90.19;100273.88;10405359;28;20523;-85
2023/01/29 00:30:37;;;;;;;1.30;1.20;;;;;;;-3.49;89.86;100271.19;10404377;28;20057;-86
2023/01/29 00:35:40;;;;;;;1.13;1.05;;;;;;;-3.47;89.76;100259.28;10371304;28;20053;-85
2023/01/29 00:46:05;;;;;;;1.17;1.00;;;;;;;-3.43;89.84;100247.13;10404870;28;20048;-85
2023/01/29 00:51:07;;;;;;;0.55;0.55;;;;;;;-3.39;89.75;100251.03;10402714;28;20544;-85
2023/01/29 00:56:09;;;;;;;1.25;1.08;;;;;;;-3.35;89.95;100241.56;10404152;28;20049;-85
2023/01/29 01:01:11;;;;;;;1.30;1.20;;;;;;;-3.35;89.51;100230.81;10404420;28;20053;-86
2023/01/29 01:06:14;;;;;;;2.30;1.52;;;;;;;-3.29;89.62;100236.44;10404432;28;20053;-86
2023/01/29 01:11:17;;;;;;;1.70;0.73;;;;;;;-3.26;89.90;100226.13;10403490;28;20052;-86
2023/01/29 01:16:19;;;;;;;1.27;1.15;;;;;;;-3.24;89.70;100224.06;10406732;28;20452;-85
2023/01/29 01:21:21;;;;;;;1.30;0.68;;;;;;;-3.20;89.26;100227.16;10410566;28;20045;-85
2023/01/29 01:26:24;;;;;;;1.48;0.93;;;;;;;-3.20;89.49;100211.06;10411908;28;20054;-85
2023/01/29 01:31:26;;;;;;;1.85;1.08;;;;;;;-3.19;89.23;100208.19;10393688;28;20076;-85
2023/01/29 01:36:28;;;;;;;1.95;1.08;;;;;;;-3.17;89.48;100208.81;10409855;28;20049;-84
2023/01/29 01:41:31;;;;;;;1.83;0.93;;;;;;;-3.15;89.91;100203.22;10408822;28;20068;-85
2023/01/29 01:46:36;;;;;;;1.67;1.33;;;;;;;-3.14;89.70;100192.28;10409282;28;20068;-86
2023/01/29 01:51:42;;;;;;;1.13;0.85;;;;;;;-3.10;90.11;100198.94;10377061;28;20053;-85
2023/01/29 01:56:49;;;;;;;0.20;0.20;;;;;;;-3.10;90.64;100195.44;10410635;28;20056;-84
2023/01/29 02:01:52;;;;;;;0.77;0.60;;;;;;;-3.09;91.35;100195.22;10393119;28;20041;-85
2023/01/29 02:12:19;;;;;;;1.08;0.98;;;;;;;-3.17;92.94;100191.88;10408570;28;20535;-84
2023/01/29 02:17:21;;;;;;;1.60;1.35;;;;;;;-3.20;93.89;100186.91;10408214;28;20045;-85
2023/01/29 02:22:46;;;;;;;1.30;1.20;;;;;;;-3.20;94.53;100173.50;10407602;28;20053;-86
2023/01/29 02:28:06;;;;;;;1.42;1.05;;;;;;;-3.32;95.49;100170.56;10408202;28;20038;-84
2023/01/29 02:33:36;;;;;;;2.17;1.40;;;;;;;-3.33;95.76;100171.59;10412469;28;20064;-84
2023/01/29 02:38:57;;;;;;;0.98;0.93;;;;;;;-3.38;96.85;100174.91;10420957;28;20034;-83
2023/01/29 02:44:05;;;;;;;4.85;1.80;;;;;;;-3.30;97.29;100162.31;10417884;28;20056;-83
2023/01/29 02:49:31;;;;;;;1.52;1.42;;;;;;;-3.30;97.25;100151.59;10393327;28;20046;-84
2023/01/29 02:54:43;;;;;;;0.52;0.52;;;;;;;-3.29;97.64;100135.31;10412369;28;20421;-85
2023/01/29 02:59:49;;;;;;;2.10;1.67;;;;;;;-3.25;97.57;100135.75;10410531;28;20046;-86
2023/01/29 03:04:56;;;;;;;2.55;1.50;;;;;;;-3.16;98.05;100126.44;10391711;28;20041;-85
2023/01/29 03:10:00;;;;;;;1.55;1.33;;;;;;;-3.08;98.07;100115.53;10391310;28;20056;-85
2023/01/29 03:15:16;;;;;;;1.45;1.23;;;;;;;-3.07;97.77;100107.28;10408995;28;20045;-85
2023/01/29 03:20:49;;;;;;;1.75;1.13;;;;;;;-3.05;97.95;100104.38;10397150;28;20397;-86
2023/01/29 03:36:47;;;;;;;3.38;2.03;;;;;;;-2.81;97.53;100074.22;10405802;28;20042;-86
2023/01/29 03:42:03;;;;;;;4.63;1.80;;;;;;;-2.76;97.71;100061.00;10406572;28;20061;-85
2023/01/29 03:47:28;;;;;;;1.67;1.27;;;;;;;-2.69;97.25;100055.63;10391420;28;20501;-85
2023/01/29 03:52:45;;;;;;;1.55;1.17;;;;;;;-2.65;97.28;100038.06;10406230;28;20049;-85
2023/01/29 03:58:02;;;;;;;3.72;2.00;;;;;;;-2.60;97.39;100040.13;10389076;28;20038;-86
2023/01/29 04:03:16;;;;;;;4.85;2.28;;;;;;;-2.56;96.87;100041.34;10405337;28;20045;-85
2023/01/29 04:08:24;;;;;;;2.22;1.60;;;;;;;-2.51;96.80;100033.47;10406808;28;20056;-84
2023/01/29 04:13:26;;;;;;;0.80;0.80;;;;;;;-2.49;96.57;100028.72;10406966;28;20060;-85
2023/01/29 04:18:28;;;;;;;0.85;0.82;;;;;;;-2.45;95.97;100011.97;10405146;28;20368;-86
2023/01/29 04:23:48;;;;;;;2.03;1.58;;;;;;;-2.42;96.52;100016.09;10403834;28;20056;-85
2023/01/29 04:29:03;;;;;;;0.95;0.63;;;;;;;-2.42;96.30;100013.41;10403385;28;20521;-85
2023/01/29 04:34:27;;;;;;;1.30;1.05;;;;;;;-2.39;96.50;100007.63;10404091;28;20049;-85
2023/01/29 04:39:48;;;;;;;2.40;1.50;;;;;;;-2.32;96.37;99999.53;10403438;28;20049;-84
2023/01/29 04:45:26;;;;;;;1.48;1.20;;;;;;;-2.29;96.71;99991.84;10404663;28;20046;-85
2023/01/29 04:50:35;;;;;;;1.00;0.90;;;;;;;-2.23;97.17;99988.34;10402718;28;20061;-85
2023/01/29 04:55:40;;;;;;;1.25;0.98;;;;;;;-2.14;97.12;99976.28;10404528;28;20049;-85
2023/01/29 05:00:45;;;;;;;3.47;2.08;;;;;;;-2.07;97.16;99987.03;10405122;28;20532;-84
2023/01/29 05:05:48;;;;;;;1.88;1.45;;;;;;;-2.00;97.29;99998.53;10406284;28;20052;-83
2023/01/29 05:10:52;;;;;;;3.90;1.83;;;;;;;-1.89;97.46;100002.44;10387557;28;20038;-86
2023/01/29 05:16:21;;;;;;;2.42;1.65;;;;;;;-1.77;97.74;99987.22;10405964;28;20042;-86
2023/01/29 05:21:25;;;;;;;1.95;1.55;;;;;;;-1.71;97.78;99990.94;10403292;28;20046;-86
2023/01/29 05:31:49;;;;;;;2.28;1.25;;;;;;;-1.64;97.53;99992.53;10404253;28;20433;-86
2023/01/29 05:36:51;;;;;;;1.88;1.27;;;;;;;-1.59;97.81;99986.50;10404409;28;20042;-84
2023/01/29 05:41:53;;;;;;;1.02;0.93;;;;;;;-1.53;97.57;99994.53;10401499;28;20050;-85
2023/01/29 05:46:56;;;;;;;1.92;1.38;;;;;;;-1.48;97.84;99993.88;10401911;28;20038;-85
2023/01/29 05:51:58;;;;;;;1.80;1.40;;;;;;;-1.44;97.75;100003.16;10402645;28;20058;-86
2023/01/29 05:57:00;;;;;;;2.08;1.40;;;;;;;-1.42;97.80;99995.69;10401721;28;20550;-85
2023/01/29 06:02:02;;;;;;;1.70;1.60;;;;;;;-1.38;97.70;99993.41;10404272;28;20038;-86
2023/01/29 06:07:04;;;;;;;4.60;2.17;;;;;;;-1.30;98.05;99987.72;10411311;28;20058;-85
2023/01/29 06:12:07;;;;;;;0.65;0.65;;;;;;;-1.29;97.93;99981.31;10411734;28;20057;-84
2023/01/29 06:17:09;;;;;;;3.30;1.38;;;;;;;-1.29;98.24;99984.81;10411105;28;20054;-85
2023/01/29 06:22:11;;;;;;;1.70;1.38;;;;;;;-1.28;98.14;99980.25;10410619;28;20041;-85
2023/01/29 06:27:14;;;;;;;0.55;0.40;;;;;;;-1.27;98.33;99974.66;10409583;28;20037;-86
2023/01/29 06:32:16;;;;;;;3.92;1.73;;;;;;;-1.26;98.07;99973.59;10409998;28;20041;-84
2023/01/29 06:37:18;;;;;;;4.15;1.60;;;;;;;-1.24;98.02;99976.91;10409609;28;20045;-85
2023/01/29 06:42:26;;;;;;;1.92;1.10;;;;;;;-1.20;97.93;99969.22;10408553;28;20053;-84
2023/01/29 06:47:28;;;;;;;1.42;1.30;;;;;;;-1.14;98.24;99965.66;10409838;28;20048;-84
2023/01/29 06:52:31;;;;;;;3.25;1.02;;;;;;;-1.11;98.36;99965.19;10411149;28;20046;-85
2023/01/29 06:57:33;;;;;;;1.52;0.80;;;;;;;-1.08;98.46;99955.84;10409904;28;20505;-86
2023/01/29 07:02:35;;;;;;;0.93;0.80;;;;;;;-1.00;97.97;99961.78;10414392;28;20038;-86
2023/01/29 07:07:38;;;;;;;1.33;0.90;;;;;;;-0.97;98.08;99961.34;10410722;28;20512;-86
2023/01/29 07:12:40;;;;;;;2.25;0.88;;;;;;;-0.94;97.98;99960.88;10410035;28;20432;-86
2023/01/29 07:17:42;;;;;;;0.65;0.65;;;;;;;-0.91;97.36;99965.81;10408933;28;20038;-85
2023/01/29 07:22:44;;;;;;;0.60;0.55;;;;;;;-0.85;97.16;99971.38;10406345;28;20042;-85
2023/01/29 07:27:47;;;;;;;2.13;1.23;;;;;;;-0.83;97.05;99967.41;10407404;28;20058;-85
2023/01/29 07:32:49;;;;;;;1.13;0.28;;;;;;;-0.81;96.71;99962.63;10405985;28;20053;-85
2023/01/29 07:37:52;;;;;;;1.58;0.82;;;;;;;-0.80;97.24;99966.13;10406918;28;20050;-86
2023/01/29 07:42:59;;;;;;;1.05;0.95;;;;;;;-0.79;97.33;99957.00;10405373;28;20046;-86
2023/01/29 07:48:03;;;;;;;1.95;0.77;;;;;;;-0.80;96.83;99955.38;10389538;28;20042;-85
2023/01/29 07:53:06;;;;;;;0.95;0.57;;;;;;;-0.77;96.60;99952.22;10407463;28;20057;-85
2023/01/29 07:58:08;;;;;;;2.28;1.20;;;;;;;-0.75;96.44;99955.50;10406328;28;20514;-83
2023/01/29 08:03:14;;;;;;;2.17;0.65;;;;;;;-0.71;96.43;99954.00;10406188;28;20509;-83
2023/01/29 08:08:18;;;;;;;0.20;0.20;;;;;;;-0.70;96.14;99964.56;10405916;28;20061;-83
2023/01/29 08:13:20;;;;;;;3.08;0.68;;;;;;;-0.64;96.49;99942.13;10404636;28;20041;-83
2023/01/29 08:18:22;;;;;;;1.30;1.05;;;;;;;-0.62;95.99;99949.97;10406848;28;20060;-82
2023/01/29 08:23:24;;;;;;;0.68;0.63;;;;;;;-0.62;95.82;99952.66;10406662;28;20049;-82
2023/01/29 08:28:27;;;;;;;0.50;0.40;;;;;;;-0.61;96.04;99959.72;10405509;28;20049;-83
2023/01/29 08:33:29;;;;;;;2.17;0.88;;;;;;;-0.56;95.89;99962.53;10406403;28;20042;-82
2023/01/29 08:38:32;;;;;;;0.45;0.45;;;;;;;-0.54;95.52;99965.84;10406008;28;20053;-84
2023/01/29 08:43:37;;;;;;;1.15;0.80;;;;;;;-0.44;95.53;99963.44;10405870;28;20045;-84
2023/01/29 08:48:40;;;;;;;1.38;1.00;;;;;;;-0.38;94.96;99957.13;10405322;28;20046;-83
2023/01/29 08:53:42;;;;;;;1.25;0.80;;;;;;;-0.33;94.69;99959.19;10402983;28;20053;-82
2023/01/29 08:58:44;;;;;;;2.83;0.75;;;;;;;-0.32;94.20;99948.16;10404770;28;20057;-83
2023/01/29 09:03:47;;;;;;;0.60;0.38;;;;;;;-0.28;94.17;99953.09;10386511;28;20531;-85
2023/01/29 09:08:49;;;;;;;2.03;1.20;;;;;;;-0.28;94.12;99947.72;10386572;28;20057;-83
2023/01/29 09:13:51;;;;;;;0.65;0.60;;;;;;;-0.25;93.75;99937.28;10369703;28;20078;-83
2023/01/29 09:18:54;;;;;;;0.38;0.30;;;;;;;-0.25;93.75;99944.56;10403918;28;20069;-83
2023/01/29 09:23:56;;;;;;;1.05;0.63;;;;;;;-0.23;93.68;99934.34;10402245;28;20049;-83
2023/01/29 09:28:58;;;;;;;1.40;0.70;;;;;;;-0.20;93.89;99920.41;10402102;28;20504;-84
2023/01/29 09:34:00;;;;;;;0.50;0.50;;;;;;;-0.19;93.16;99909.41;10403507;28;20049;-84
2023/01/29 09:39:02;;;;;;;0.63;0.40;;;;;;;-0.19;92.92;99905.88;10408558;28;20045;-83
2023/01/29 09:44:16;;;;;;;3.13;0.68;;;;;;;-0.17;93.26;99912.72;10411245;28;20296;-83
2023/01/29 09:49:47;;;;;;;1.30;0.75;;;;;;;-0.18;92.89;99912.91;10409733;28;20049;-83
2023/01/29 09:55:06;;;;;;;1.00;0.95;;;;;;;-0.11;92.71;99900.19;10409414;28;20033;-84
2023/01/29 10:00:22;;;;;;;1.05;0.68;;;;;;;0.00;92.14;99894.00;10409327;28;20046;-84
2023/01/29 10:05:45;;;;;;;1.00;0.70;;;;;;;-0.03;91.54;99895.28;10408880;28;20065;-83
2023/01/29 10:11:06;;;;;;;1.55;0.80;;;;;;;0.00;91.73;99896.72;10409188;28;20057;-83
2023/01/29 10:16:12;;;;;;;1.65;0.45;;;;;;;-0.02;90.99;99888.00;10408770;28;20050;-83
2023/01/29 10:21:29;;;;;;;1.75;0.80;;;;;;;-0.04;91.64;99893.63;10410517;28;20041;-84
2023/01/29 10:26:33;;;;;;;0.60;0.45;;;;;;;-0.04;91.84;99892.81;10410620;28;20048;-84
2023/01/29 10:31:38;;;;;;;1.00;0.80;;;;;;;0.00;91.50;99891.31;10425137;28;20046;-85
2023/01/29 10:36:43;;;;;;;1.92;0.70;;;;;;;0.02;90.98;99894.59;10438474;28;20042;-83
2023/01/29 10:42:04;;;;;;;1.88;1.08;;;;;;;0.01;90.67;99902.94;10433476;28;20110;-84
2023/01/29 10:47:34;;;;;;;1.05;0.68;;;;;;;0.01;91.02;99884.88;10425894;28;20069;-84
2023/01/29 10:52:58;;;;;;;1.58;1.10;;;;;;;-0.06;90.89;99889.53;10428536;28;20227;-85
2023/01/29 10:58:18;;;;;;;0.55;0.50;;;;;;;-0.03;90.44;99881.78;10428415;28;20054;-84
2023/01/29 11:03:26;;;;;;;0.50;0.50;;;;;;;-0.05;90.09;99875.81;10409469;28;20393;-84
2023/01/29 11:08:46;;;;;;;1.63;0.43;;;;;;;-0.10;89.95;99870.28;10410437;28;20056;-84
2023/01/29 11:14:04;;;;;;;3.20;0.88;;;;;;;-0.10;90.44;99864.06;10409653;28;20081;-84
2023/01/29 11:19:06;;;;;;;3.15;1.13;;;;;;;-0.08;90.08;99859.28;10407672;28;20049;-83
2023/01/29 11:24:16;;;;;;;1.52;0.73;;;;;;;-0.04;90.32;99852.34;10408109;28;20038;-85
2023/01/29 11:29:33;;;;;;;0.65;0.65;;;;;;;-0.05;90.36;99829.13;10408335;28;20049;-85
2023/01/29 11:35:07;;;;;;;2.65;1.00;;;;;;;0.12;90.00;99822.00;10407616;28;20046;-84
2023/01/29 11:40:39;;;;;;;1.80;1.42;;;;;;;0.47;89.37;99810.41;10405803;28;20420;-84
2023/01/29 11:45:41;;;;;;;1.08;0.60;;;;;;;0.49;87.95;99811.00;10404800;28;20050;-84
2023/01/29 11:50:50;;;;;;;4.50;1.00;;;;;;;0.29;87.85;99808.66;10406875;28;20046;-84
2023/01/29 11:55:54;;;;;;;3.20;0.60;;;;;;;0.30;87.72;99805.72;10407552;28;20056;-84
2023/01/29 12:00:57;;;;;;;1.48;1.05;;;;;;;0.03;88.08;99801.03;10405538;28;20049;-86
2023/01/29 12:06:07;;;;;;;1.52;0.80;;;;;;;-0.13;88.22;99808.75;10404828;28;20052;-85
2023/01/29 12:11:09;;;;;;;1.63;1.17;;;;;;;-0.21;88.84;99805.53;10387246;28;20053;-84
2023/01/29 12:16:19;;;;;;;3.60;1.25;;;;;;;-0.28;88.74;99813.75;10405788;28;20050;-83
2023/01/29 12:21:29;;;;;;;1.20;1.00;;;;;;;-0.28;88.79;99796.75;10406185;28;20050;-83
2023/01/29 12:26:38;;;;;;;2.05;1.10;;;;;;;-0.27;88.68;99803.78;10407670;28;20133;-85
2023/01/29 12:32:05;;;;;;;0.50;0.45;;;;;;;-0.32;89.04;99815.25;10405361;28;20070;-85
2023/01/29 12:37:12;;;;;;;0.77;0.55;;;;;;;-0.36;88.52;99814.06;10406193;28;20046;-83
2023/01/29 12:42:22;;;;;;;1.73;0.93;;;;;;;-0.38;89.47;99803.50;10403094;28;20050;-83
2023/01/29 12:47:38;;;;;;;0.70;0.70;;;;;;;-0.36;88.55;99803.28;10403019;28;20060;-83
2023/01/29 12:52:44;;;;;;;0.77;0.75;;;;;;;-0.36;89.12;99795.19;10404494;28;20516;-85
2023/01/29 12:57:54;;;;;;;1.25;0.80;;;;;;;-0.37;88.62;99799.75;10402954;28;20046;-85
2023/01/29 13:03:18;;;;;;;1.65;1.10;;;;;;;-0.41;89.02;99782.41;10399229;28;20045;-85
2023/01/29 13:08:25;;;;;;;1.00;0.95;;;;;;;-0.39;88.72;99772.22;10402362;28;20041;-84
2023/01/29 13:13:35;;;;;;;1.27;0.75;;;;;;;-0.43;88.86;99773.72;10408531;28;20046;-84
2023/01/29 13:19:26;;;;;;;4.28;0.80;;;;;;;-0.46;88.55;99763.41;10412143;28;20038;-84
2023/01/29 13:24:39;;;;;;;1.83;1.13;;;;;;;-0.44;88.87;99764.00;10410249;28;20544;-83
2023/01/29 13:29:42;;;;;;;0.65;0.63;;;;;;;-0.48;88.68;99760.13;10411726;28;20042;-83
2023/01/29 13:34:46;;;;;;;1.27;0.95;;;;;;;-0.52;88.83;99755.41;10410169;28;20061;-84
2023/01/29 13:39:50;;;;;;;2.85;1.73;;;;;;;-0.52;89.39;99744.63;10411367;28;20082;-83
2023/01/29 13:44:55;;;;;;;3.22;2.53;;;;;;;-0.51;89.36;99749.00;10409354;28;20057;-84
2023/01/29 13:50:04;;;;;;;6.18;1.85;;;;;;;-0.54;89.15;99726.00;10409686;28;20045;-85
2023/01/29 13:55:20;;;;;;;3.53;2.08;;;;;;;-0.50;89.89;99713.75;10411142;28;20052;-82
2023/01/29 14:00:29;;;;;;;1.88;1.25;;;;;;;-0.54;90.06;99703.63;10411427;28;20057;-84
2023/01/29 14:05:37;;;;;;;3.92;2.35;;;;;;;-0.57;89.93;99701.41;10410003;28;20048;-85
2023/01/29 14:10:41;;;;;;;3.05;2.15;;;;;;;-0.63;90.50;99695.09;10409526;28;20046;-85
2023/01/29 14:16:03;;;;;;;3.97;1.50;;;;;;;-0.64;90.02;99696.13;10410437;28;20088;-84
2023/01/29 14:21:29;;;;;;;4.43;2.25;;;;;;;-0.67;90.72;99696.59;10409392;28;20053;-84
2023/01/29 14:26:37;;;;;;;3.38;2.00;;;;;;;-0.68;90.49;99689.56;10408082;28;20053;-82
2023/01/29 14:31:42;;;;;;;1.23;1.02;;;;;;;-0.69;90.98;99694.13;10409416;28;20172;-84
2023/01/29 14:36:46;;;;;;;1.98;1.02;;;;;;;-0.69;90.68;99690.63;10409008;28;20037;-85
2023/01/29 14:41:49;;;;;;;3.03;1.90;;;;;;;-0.71;90.80;99681.94;10406463;28;20058;-84
2023/01/29 14:46:51;;;;;;;4.00;1.73;;;;;;;-0.74;90.73;99674.31;10407438;28;20037;-83
2023/01/29 14:51:55;;;;;;;3.20;1.80;;;;;;;-0.72;90.92;99669.50;10408754;28;20058;-84
2023/01/29 14:57:01;;;;;;;2.88;1.17;;;;;;;-0.81;91.00;99669.03;10408904;28;20050;-85
2023/01/29 15:02:35;;;;;;;0.98;0.82;;;;;;;-0.81;90.90;99662.84;10406624;28;20412;-85
2023/01/29 15:07:43;;;;;;;4.00;1.30;;;;;;;-0.83;91.25;99670.34;10408732;28;20052;-84
2023/01/29 15:12:49;;;;;;;0.73;0.70;;;;;;;-0.85;91.50;99667.88;10389964;28;20053;-83
2023/01/29 15:18:00;;;;;;;4.18;1.50;;;;;;;-0.85;91.68;99657.09;10406321;28;20133;-83
2023/01/29 15:23:30;;;;;;;2.85;1.52;;;;;;;-0.83;91.88;99648.78;10406189;28;20630;-84
2023/01/29 15:28:37;;;;;;;1.63;1.52;;;;;;;-0.82;92.08;99639.66;10406901;28;20496;-83
2023/01/29 15:33:43;;;;;;;1.40;0.77;;;;;;;-0.81;91.86;99641.28;10404566;28;20062;-84
2023/01/29 15:38:45;;;;;;;2.03;1.00;;;;;;;-0.80;91.59;99632.16;10404806;28;20041;-83
2023/01/29 15:43:51;;;;;;;1.50;0.80;;;;;;;-0.80;91.63;99627.59;10405994;28;20428;-85
2023/01/29 15:48:55;;;;;;;3.78;1.02;;;;;;;-0.77;91.94;99634.38;10404510;28;20531;-85
2023/01/29 15:54:29;;;;;;;0.98;0.82;;;;;;;-0.73;91.85;99616.69;10404236;28;20053;-84
2023/01/29 15:59:34;;;;;;;2.13;1.15;;;;;;;-0.72;91.68;99621.03;10405361;28;20034;-85
2023/01/29 16:04:40;;;;;;;1.80;0.90;;;;;;;-0.70;91.75;99619.75;10403997;28;20515;-83
2023/01/29 16:09:43;;;;;;;1.60;1.00;;;;;;;-0.63;91.93;99614.25;10404258;28;20037;-83
2023/01/29 16:14:47;;;;;;;1.38;1.10;;;;;;;-0.59;91.96;99601.97;10404998;28;20053;-84
2023/01/29 16:19:56;;;;;;;1.17;0.60;;;;;;;-0.55;91.82;99592.34;10403479;28;20045;-84
2023/01/29 16:25:07;;;;;;;1.17;0.57;;;;;;;-0.53;91.89;99586.72;10405087;28;20425;-84
2023/01/29 16:30:15;;;;;;;0.80;0.57;;;;;;;-0.50;92.01;99572.81;10403769;28;20453;-85
2023/01/29 16:35:17;;;;;;;0.63;0.50;;;;;;;-0.50;92.46;99552.06;10404641;28;20508;-84
2023/01/29 16:40:31;;;;;;;0.77;0.50;;;;;;;-0.47;91.61;99540.81;10403711;28;20053;-83
2023/01/29 16:45:33;;;;;;;1.33;0.60;;;;;;;-0.45;91.84;99543.25;10403437;28;20045;-85
2023/01/29 16:50:39;;;;;;;1.58;0.90;;;;;;;-0.43;91.72;99528.50;10387088;28;20049;-86
2023/01/29 16:55:48;;;;;;;2.08;0.70;;;;;;;-0.40;91.59;99530.72;10404664;28;20053;-85
2023/01/29 17:01:02;;;;;;;0.93;0.70;;;;;;;-0.37;91.59;99522.16;10406220;28;20053;-84
2023/01/29 17:06:12;;;;;;;1.33;0.50;;;;;;;-0.34;91.90;99519.00;10416662;28;20603;-84
2023/01/29 17:11:40;;;;;;;2.15;0.55;;;;;;;-0.31;91.88;99507.75;10404835;28;20049;-85
2023/01/29 17:16:54;;;;;;;1.02;0.93;;;;;;;-0.28;91.51;99484.06;10403506;28;20416;-85
2023/01/29 17:21:57;;;;;;;0.75;0.73;;;;;;;-0.26;91.41;99480.06;10403472;28;20046;-84
2023/01/29 17:27:00;;;;;;;0.90;0.57;;;;;;;-0.22;92.32;99475.81;10403429;28;20440;-85
2023/01/29 17:32:03;;;;;;;0.13;0.13;;;;;;;-0.21;92.45;99455.88;10403989;28;20053;-85
2023/01/29 17:37:10;;;;;;;1.15;0.82;;;;;;;-0.20;92.35;99454.00;10403963;28;20046;-85
2023/01/29 17:42:14;;;;;;;1.48;1.20;;;;;;;-0.19;92.84;99442.16;10402468;28;20053;-84
2023/01/29 17:47:16;;;;;;;0.85;0.82;;;;;;;-0.23;93.10;99417.56;10402075;28;20049;-83
2023/01/29 17:52:18;;;;;;;1.40;1.00;;;;;;;-0.23;93.37;99411.38;10403696;28;20523;-86
2023/01/29 17:57:20;;;;;;;3.63;0.75;;;;;;;-0.25;94.04;99408.09;10404294;28;20065;-85
2023/01/29 18:02:25;;;;;;;0.65;0.65;;;;;;;-0.29;93.73;99401.56;10410593;28;20607;-86
2023/01/29 18:07:27;;;;;;;3.30;0.77;;;;;;;-0.31;94.14;99399.91;10409526;28;20049;-86
2023/01/29 18:12:30;;;;;;;0.98;0.95;;;;;;;-0.29;94.08;99390.78;10409957;28;20061;-84
2023/01/29 18:17:32;;;;;;;2.28;0.70;;;;;;;-0.32;94.76;99371.34;10408756;28;20048;-85
2023/01/29 18:22:35;;;;;;;1.42;0.85;;;;;;;-0.35;94.83;99377.22;10410002;28;20461;-84
2023/01/29 18:27:37;;;;;;;1.33;1.23;;;;;;;-0.35;95.04;99366.44;10412679;28;20057;-84
2023/01/29 18:32:40;;;;;;;2.33;1.30;;;;;;;-0.36;95.41;99350.47;10424275;28;20076;-84
2023/01/29 18:37:42;;;;;;;1.35;1.08;;;;;;;-0.40;95.33;99331.28;10413631;28;20059;-85
2023/01/29 18:42:45;;;;;;;1.13;0.98;;;;;;;-0.41;94.84;99328.84;10413566;28;20058;-83
2023/01/29 18:47:48;;;;;;;1.85;1.42;;;;;;;-0.48;94.94;99312.81;10416440;28;20041;-85
2023/01/29 18:52:53;;;;;;;1.58;1.15;;;;;;;-0.54;95.09;99297.59;10413156;28;20050;-86
2023/01/29 18:57:56;;;;;;;1.00;0.75;;;;;;;-0.57;95.08;99291.88;10414613;28;20046;-85
2023/01/29 19:02:58;;;;;;;1.27;0.90;;;;;;;-0.54;95.77;99277.94;10409892;28;20043;-84
2023/01/29 19:08:00;;;;;;;1.23;0.80;;;;;;;-0.52;95.93;99270.41;10409089;28;20053;-85
2023/01/29 19:13:02;;;;;;;1.42;0.80;;;;;;;-0.49;96.23;99257.31;10407640;28;20056;-84
2023/01/29 19:18:05;;;;;;;0.65;0.57;;;;;;;-0.44;96.01;99248.47;10407708;28;20038;-84
2023/01/29 19:23:08;;;;;;;0.30;0.30;;;;;;;-0.40;96.08;99245.03;10407696;28;20057;-85
2023/01/29 19:28:10;;;;;;;2.22;1.10;;;;;;;-0.38;96.14;99224.06;10408008;28;20448;-84
2023/01/29 19:33:12;;;;;;;2.22;1.25;;;;;;;-0.34;96.19;99217.13;10377962;28;20611;-84
2023/01/29 19:38:19;;;;;;;1.63;0.75;;;;;;;-0.32;96.45;99203.41;10375551;28;20042;-84
2023/01/29 19:43:21;;;;;;;1.05;0.90;;;;;;;-0.27;96.76;99184.63;10407036;28;20041;-84
2023/01/29 19:48:26;;;;;;;0.52;0.52;;;;;;;-0.25;95.87;99177.09;10409237;28;20050;-85
2023/01/29 19:53:30;;;;;;;0.95;0.85;;;;;;;-0.21;96.15;99166.63;10404933;28;20496;-85
2023/01/29 19:58:32;;;;;;;0.20;0.20;;;;;;;-0.18;96.04;99147.25;10406286;28;20046;-84
2023/01/29 20:03:34;;;;;;;0.50;0.50;;;;;;;-0.18;95.97;99145.38;10403962;28;20049;-84
2023/01/29 20:08:37;;;;;;;0.73;0.68;;;;;;;-0.17;96.24;99140.84;10406067;28;20432;-83
2023/01/29 20:13:39;;;;;;;0.77;0.77;;;;;;;-0.18;96.09;99134.59;10405537;28;20045;-84
2023/01/29 20:18:41;;;;;;;0.15;0.15;;;;;;;-0.17;95.77;99140.84;10404383;28;20050;-82
2023/01/29 20:23:43;;;;;;;1.25;0.68;;;;;;;-0.18;95.81;99123.81;10405030;28;20060;-83
2023/01/29 20:28:46;;;;;;;1.17;0.70;;;;;;;-0.18;95.00;99118.44;10405816;28;20058;-83
2023/01/29 20:33:49;;;;;;;2.17;0.60;;;;;;;-0.15;95.07;99122.53;10404112;28;20077;-83
2023/01/29 20:38:51;;;;;;;0.57;0.50;;;;;;;-0.15;94.44;99090.19;10404654;28;20076;-83
2023/01/29 20:43:53;;;;;;;0.90;0.60;;;;;;;-0.14;94.46;99091.81;10404816;28;20038;-83
2023/01/29 20:48:55;;;;;;;0.50;0.50;;;;;;;-0.13;94.27;99075.38;10404600;28;20046;-84
2023/01/29 20:53:57;;;;;;;0.20;0.20;;;;;;;-0.11;93.78;99067.84;10405511;28;20046;-84
2023/01/29 20:59:01;;;;;;;0.98;0.77;;;;;;;-0.10;93.54;99061.41;10404878;28;20037;-84
2023/01/29 21:04:03;;;;;;;1.17;0.70;;;;;;;-0.09;93.80;99046.84;10405293;28;20057;-84
2023/01/29 21:09:05;;;;;;;3.22;1.00;;;;;;;-0.08;93.98;99043.09;10405926;28;20049;-86
2023/01/29 21:14:07;;;;;;;0.52;0.52;;;;;;;-0.07;93.18;99042.03;10404720;28;20413;-85
2023/01/29 21:19:13;;;;;;;1.10;1.10;;;;;;;-0.07;93.63;99033.13;10404147;28;20044;-85
2023/01/29 21:24:17;;;;;;;0.90;0.40;;;;;;;-0.06;93.53;99022.09;10404623;28;20046;-85
2023/01/29 21:29:20;;;;;;;0.55;0.55;;;;;;;-0.05;93.06;98987.84;10406591;28;20562;-85
2023/01/29 21:34:22;;;;;;;0.60;0.60;;;;;;;-0.07;93.49;98971.09;10409388;28;20062;-84
2023/01/29 21:39:25;;;;;;;0.43;0.43;;;;;;;-0.09;93.13;98974.06;10412109;28;20050;-85
2023/01/29 21:44:27;;;;;;;0.60;0.60;;;;;;;-0.06;92.72;98949.28;10411331;28;20405;-85
2023/01/29 21:49:29;;;;;;;0.63;0.63;;;;;;;-0.06;93.02;98943.06;10411334;28;20181;-85
2023/01/29 21:54:34;;;;;;;0.45;0.40;;;;;;;-0.08;92.65;98924.47;10410756;28;20042;-85
2023/01/29 21:59:36;;;;;;;1.60;0.50;;;;;;;-0.07;92.25;98917.19;10411522;28;20058;-85
2023/01/29 22:04:39;;;;;;;0.80;0.80;;;;;;;-0.08;91.96;98902.09;10411445;28;20046;-85
2023/01/29 22:09:41;;;;;;;1.13;0.80;;;;;;;-0.12;92.34;98895.56;10411117;28;20050;-84
2023/01/29 22:14:46;;;;;;;1.08;0.70;;;;;;;-0.13;91.59;98878.59;10410168;28;20041;-86
2023/01/29 22:19:48;;;;;;;0.70;0.70;;;;;;;-0.13;91.70;98864.28;10410577;28;20057;-85
2023/01/29 22:24:51;;;;;;;0.75;0.73;;;;;;;-0.14;91.93;98862.66;10409517;28;20054;-84
2023/01/29 22:29:53;;;;;;;1.00;0.80;;;;;;;-0.15;91.61;98848.38;10409801;28;20041;-85
2023/01/29 22:34:55;;;;;;;0.80;0.80;;;;;;;-0.15;92.06;98832.22;10409978;28;20054;-86
2023/01/29 22:39:58;;;;;;;0.93;0.63;;;;;;;-0.14;92.03;98833.84;10409588;28;20049;-86
2023/01/29 22:45:00;;;;;;;0.82;0.70;;;;;;;-0.16;92.19;98838.66;10408619;28;20038;-86
2023/01/29 22:50:05;;;;;;;1.83;1.00;;;;;;;-0.17;92.42;98822.75;10408592;28;20080;-85
2023/01/29 22:55:09;;;;;;;2.30;1.10;;;;;;;-0.18;92.69;98807.63;10408582;28;20054;-84
2023/01/29 23:00:11;;;;;;;0.40;0.40;;;;;;;-0.20;92.57;98790.91;10408217;28;20052;-85
2023/01/29 23:05:14;;;;;;;1.00;0.82;;;;;;;-0.22;92.57;98763.38;10408400;28;20057;-85
2023/01/29 23:10:16;;;;;;;1.70;0.95;;;;;;;-0.21;92.35;98752.34;10408373;28;20053;-84
2023/01/29 23:15:18;;;;;;;1.63;0.82;;;;;;;-0.22;92.48;98739.13;10408189;28;20394;-86
2023/01/29 23:20:20;;;;;;;1.60;0.98;;;;;;;-0.23;93.06;98732.13;10407567;28;20054;-83
2023/01/29 23:27:13;;;;;;;3.13;0.90;;;;;;;-0.24;92.48;98720.53;10405735;28;20042;-84
2023/01/29 23:30:46;;;;;;;1.42;1.30;;;;;;;-0.25;92.80;98691.13;10407657;28;20049;-85
2023/01/29 23:35:48;;;;;;;1.02;0.75;;;;;;;-0.26;93.10;98684.94;10407756;28;20555;-84
2023/01/29 23:40:50;;;;;;;1.25;0.90;;;;;;;-0.28;93.29;98659.31;10406909;28;20046;-84
2023/01/29 23:45:53;;;;;;;2.92;1.45;;;;;;;-0.31;94.21;98647.19;10409776;28;20041;-84
2023/01/29 23:50:55;;;;;;;1.30;0.90;;;;;;;-0.33;94.38;98619.69;10409346;28;20424;-84
2023/01/29 23:55:59;;;;;;;2.28;1.23;;;;;;;-0.34;95.05;98613.47;10407422;28;20431;-84
